Time;durP1;ratioP1;P1;durP2;ratioP2;P2;SDS_P1;SDS_P2;PMS_P1;PMS_P2;Temp;Humidity;BMP_temperature;BMP_pressure;BME280_temperature;BME280_humidity;BME280_pressure;Samples;Min_cycle;Max_cycle;Signal;HPM_P1;HPM_P2
2023/07/07 00:02:13;;;;;;;4.25;2.35;;;;;;;;;;5025364;28;20037;-70
2023/07/07 00:04:39;;;;;;;3.60;2.60;;;;;;;;;;5026706;28;20801;-70
2023/07/07 00:07:05;;;;;;;4.18;2.25;;;;;;;;;;5025133;28;20533;-70
2023/07/07 00:09:30;;;;;;;4.47;2.42;;;;;;;;;;5027227;28;20021;-70
2023/07/07 00:11:57;;;;;;;6.55;3.22;;;;;;;;;;5036985;28;20021;-70
2023/07/07 00:14:22;;;;;;;3.97;2.35;;;;;;;;;;5030627;28;20116;-70
2023/07/07 00:16:47;;;;;;;5.00;2.75;;;;;;;;;;5026051;28;20137;-70
2023/07/07 00:19:13;;;;;;;4.65;2.40;;;;;;;;;;5027522;28;20044;-70
2023/07/07 00:21:40;;;;;;;6.60;2.70;;;;;;;;;;5026341;28;20021;-70
2023/07/07 00:24:07;;;;;;;6.00;2.53;;;;;;;;;;5040000;28;20674;-70
2023/07/07 00:26:33;;;;;;;5.40;2.50;;;;;;;;;;5028576;28;20045;-70
2023/07/07 00:28:59;;;;;;;4.85;2.60;;;;;;;;;;5032364;28;20116;-70
2023/07/07 00:31:26;;;;;;;4.68;2.53;;;;;;;;;;5039477;28;20065;-70
2023/07/07 00:33:52;;;;;;;4.82;2.45;;;;;;;;;;5037685;28;20490;-70
2023/07/07 00:36:18;;;;;;;3.53;2.38;;;;;;;;;;5028416;28;20025;-70
2023/07/07 00:38:43;;;;;;;4.05;2.53;;;;;;;;;;5026605;28;20037;-70
2023/07/07 00:41:09;;;;;;;3.88;2.83;;;;;;;;;;5026382;28;20588;-70
2023/07/07 00:43:35;;;;;;;5.40;2.42;;;;;;;;;;5026550;28;20033;-70
2023/07/07 00:46:02;;;;;;;3.25;2.30;;;;;;;;;;5026377;28;20052;-70
2023/07/07 00:48:34;;;;;;;5.65;2.35;;;;;;;;;;5025468;28;20403;-70
2023/07/07 00:51:12;;;;;;;3.63;2.30;;;;;;;;;;5027014;28;20053;-70
2023/07/07 00:53:39;;;;;;;3.25;2.17;;;;;;;;;;5026367;28;20092;-70
2023/07/07 00:56:11;;;;;;;4.03;2.38;;;;;;;;;;5026245;28;20063;-70
2023/07/07 00:58:39;;;;;;;5.28;2.65;;;;;;;;;;5026082;28;20037;-70
2023/07/07 01:01:13;;;;;;;3.90;2.60;;;;;;;;;;5025564;28;20538;-70
2023/07/07 01:03:45;;;;;;;4.00;2.42;;;;;;;;;;5026153;28;20036;-70
2023/07/07 01:06:14;;;;;;;5.45;2.70;;;;;;;;;;5026439;28;20133;-70
2023/07/07 01:08:41;;;;;;;5.40;2.40;;;;;;;;;;5025952;28;20570;-70
2023/07/07 01:11:07;;;;;;;4.97;2.90;;;;;;;;;;5025715;28;20491;-70
2023/07/07 01:13:33;;;;;;;4.43;2.60;;;;;;;;;;5026324;28;20036;-70
2023/07/07 01:16:01;;;;;;;3.80;2.70;;;;;;;;;;5025445;28;20037;-70
2023/07/07 01:18:46;;;;;;;4.05;2.50;;;;;;;;;;5026009;28;20061;-70
2023/07/07 01:21:29;;;;;;;5.85;2.58;;;;;;;;;;5022908;28;20025;-70
2023/07/07 01:24:30;;;;;;;5.10;2.80;;;;;;;;;;5037331;28;20080;-70
2023/07/07 01:27:14;;;;;;;5.10;2.80;;;;;;;;;;5037016;28;20179;-70
2023/07/07 01:29:45;;;;;;;6.60;3.00;;;;;;;;;;5026198;28;20299;-70
2023/07/07 01:32:16;;;;;;;4.25;2.55;;;;;;;;;;5024453;28;20521;-70
2023/07/07 01:34:41;;;;;;;7.85;2.75;;;;;;;;;;5027025;28;20060;-70
2023/07/07 01:37:07;;;;;;;7.22;3.03;;;;;;;;;;5024720;28;20519;-70
2023/07/07 01:39:33;;;;;;;3.78;2.70;;;;;;;;;;5033777;28;20485;-70
2023/07/07 01:42:07;;;;;;;5.60;2.90;;;;;;;;;;5008456;28;20099;-70
2023/07/07 01:44:40;;;;;;;5.63;2.92;;;;;;;;;;5018975;28;20046;-70
2023/07/07 01:47:15;;;;;;;5.97;2.63;;;;;;;;;;5010578;28;20085;-70
2023/07/07 01:50:08;;;;;;;4.72;2.90;;;;;;;;;;5041867;28;20514;-70
2023/07/07 01:52:40;;;;;;;;;;;;;;;;;;5035474;28;20037;-70
2023/07/07 01:55:14;;;;;;;5.70;2.92;;;;;;;;;;5073662;28;19913;-70
2023/07/07 01:57:43;;;;;;;6.20;3.10;;;;;;;;;;5050306;28;20037;-70
2023/07/07 02:00:09;;;;;;;5.72;2.80;;;;;;;;;;5032139;28;20112;-70
2023/07/07 02:02:35;;;;;;;4.35;3.15;;;;;;;;;;5029133;28;20036;-70
2023/07/07 02:05:00;;;;;;;7.43;3.10;;;;;;;;;;5027780;28;20829;-70
2023/07/07 02:07:26;;;;;;;4.90;2.83;;;;;;;;;;5028515;28;20597;-70
2023/07/07 02:09:51;;;;;;;5.28;2.75;;;;;;;;;;5027640;28;20038;-70
2023/07/07 02:12:16;;;;;;;6.90;3.33;;;;;;;;;;5029870;28;20032;-70
2023/07/07 02:14:41;;;;;;;4.53;2.90;;;;;;;;;;5028127;28;20078;-70
2023/07/07 02:17:07;;;;;;;5.32;2.90;;;;;;;;;;5028537;28;20038;-70
2023/07/07 02:19:32;;;;;;;6.60;3.13;;;;;;;;;;5028885;28;20049;-70
2023/07/07 02:21:57;;;;;;;5.65;2.47;;;;;;;;;;5029217;28;20029;-70
2023/07/07 02:24:23;;;;;;;6.00;3.30;;;;;;;;;;5027827;28;20619;-70
2023/07/07 02:26:49;;;;;;;4.60;2.92;;;;;;;;;;5028886;28;20025;-70
2023/07/07 02:29:15;;;;;;;5.90;3.25;;;;;;;;;;5033092;28;20040;-70
2023/07/07 02:31:41;;;;;;;6.63;3.30;;;;;;;;;;5038105;28;20041;-70
2023/07/07 02:34:06;;;;;;;6.10;2.78;;;;;;;;;;5027279;28;20034;-69
2023/07/07 02:36:31;;;;;;;8.23;3.22;;;;;;;;;;5028795;28;20030;-70
2023/07/07 02:38:57;;;;;;;7.95;3.40;;;;;;;;;;5028985;28;20025;-70
2023/07/07 02:41:22;;;;;;;5.57;3.22;;;;;;;;;;5028354;28;20075;-70
2023/07/07 02:43:48;;;;;;;6.97;3.20;;;;;;;;;;5028051;28;20985;-70
2023/07/07 02:46:13;;;;;;;5.18;2.80;;;;;;;;;;5027527;28;20112;-70
2023/07/07 02:48:38;;;;;;;4.88;3.00;;;;;;;;;;5028936;28;20029;-70
2023/07/07 02:51:06;;;;;;;4.82;2.88;;;;;;;;;;5028699;28;20016;-70
2023/07/07 02:53:34;;;;;;;12.52;2.85;;;;;;;;;;5032605;28;20033;-70
2023/07/07 02:56:00;;;;;;;5.72;2.90;;;;;;;;;;5068981;28;20120;-70
2023/07/07 02:58:26;;;;;;;5.05;3.05;;;;;;;;;;5028216;28;20677;-70
2023/07/07 03:00:52;;;;;;;7.75;2.88;;;;;;;;;;5027211;28;20037;-71
2023/07/07 03:03:19;;;;;;;6.50;3.20;;;;;;;;;;5028766;28;20368;-70
2023/07/07 03:05:45;;;;;;;5.80;3.13;;;;;;;;;;5026754;28;20077;-69
2023/07/07 03:08:12;;;;;;;6.03;3.25;;;;;;;;;;5027375;28;20053;-70
2023/07/07 03:10:39;;;;;;;7.85;3.25;;;;;;;;;;5027525;28;20470;-70
2023/07/07 03:13:05;;;;;;;6.82;3.20;;;;;;;;;;5015655;28;20496;-70
2023/07/07 03:15:39;;;;;;;6.82;3.20;;;;;;;;;;5028895;28;20026;-70
2023/07/07 03:18:06;;;;;;;5.78;3.10;;;;;;;;;;5063148;28;20064;-70
2023/07/07 03:20:32;;;;;;;9.55;3.40;;;;;;;;;;5037349;28;20056;-70
2023/07/07 03:22:58;;;;;;;7.05;3.33;;;;;;;;;;5044382;28;20495;-70
2023/07/07 03:25:25;;;;;;;6.72;3.10;;;;;;;;;;5032207;28;20044;-70
2023/07/07 03:27:51;;;;;;;6.47;3.28;;;;;;;;;;5029322;28;20082;-69
2023/07/07 03:30:16;;;;;;;7.57;3.50;;;;;;;;;;5028925;28;20029;-69
2023/07/07 03:32:42;;;;;;;7.03;3.50;;;;;;;;;;5028273;28;20033;-69
2023/07/07 03:35:07;;;;;;;9.35;3.42;;;;;;;;;;5027702;28;20416;-69
2023/07/07 03:37:33;;;;;;;6.82;3.92;;;;;;;;;;5028336;28;20041;-69
2023/07/07 03:39:58;;;;;;;12.80;3.85;;;;;;;;;;5026076;28;20056;-69
2023/07/07 03:42:23;;;;;;;5.65;3.55;;;;;;;;;;5027905;28;20033;-69
2023/07/07 03:44:48;;;;;;;10.35;4.13;;;;;;;;;;5028092;28;20056;-69
2023/07/07 03:47:14;;;;;;;9.20;4.45;;;;;;;;;;5026583;28;20637;-70
2023/07/07 03:49:39;;;;;;;8.05;4.35;;;;;;;;;;5027439;28;20128;-69
2023/07/07 03:52:05;;;;;;;8.10;4.43;;;;;;;;;;5027743;28;20503;-69
2023/07/07 03:54:30;;;;;;;8.98;4.60;;;;;;;;;;5039834;28;20508;-69
2023/07/07 03:56:56;;;;;;;9.10;5.10;;;;;;;;;;5060117;28;20025;-69
2023/07/07 03:59:21;;;;;;;9.48;5.15;;;;;;;;;;5027335;28;20079;-69
2023/07/07 04:01:48;;;;;;;10.82;4.90;;;;;;;;;;5026065;28;20584;-69
2023/07/07 04:04:13;;;;;;;8.95;4.15;;;;;;;;;;5027083;28;20037;-69
2023/07/07 04:06:39;;;;;;;7.70;4.28;;;;;;;;;;5026691;28;20041;-69
2023/07/07 04:09:04;;;;;;;12.63;4.72;;;;;;;;;;5027707;28;20088;-69
2023/07/07 04:11:30;;;;;;;8.82;4.32;;;;;;;;;;5025410;28;20033;-69
2023/07/07 04:13:55;;;;;;;8.15;4.13;;;;;;;;;;5026485;28;20037;-69
2023/07/07 04:16:23;;;;;;;9.10;4.45;;;;;;;;;;5024879;28;20520;-69
2023/07/07 04:18:50;;;;;;;8.60;4.30;;;;;;;;;;5027060;28;20037;-69
2023/07/07 04:21:21;;;;;;;8.55;4.10;;;;;;;;;;5026885;28;20050;-70
2023/07/07 04:23:49;;;;;;;8.75;4.82;;;;;;;;;;5047084;28;20736;-69
2023/07/07 04:26:16;;;;;;;7.35;4.15;;;;;;;;;;5046445;28;20037;-69
2023/07/07 04:28:41;;;;;;;8.05;4.05;;;;;;;;;;5046490;28;20082;-69
2023/07/07 04:31:09;;;;;;;8.82;4.35;;;;;;;;;;5027299;28;20668;-70
2023/07/07 04:33:36;;;;;;;8.73;4.20;;;;;;;;;;5026787;28;20029;-69
2023/07/07 04:36:05;;;;;;;7.05;3.60;;;;;;;;;;5025389;28;20018;-69
2023/07/07 04:38:31;;;;;;;6.60;3.40;;;;;;;;;;5027249;28;20511;-69
2023/07/07 04:41:10;;;;;;;6.68;3.70;;;;;;;;;;5026814;28;20419;-69
2023/07/07 04:43:39;;;;;;;9.10;3.40;;;;;;;;;;5028230;28;20029;-69
2023/07/07 04:46:05;;;;;;;6.38;3.88;;;;;;;;;;5037200;28;20041;-69
2023/07/07 04:48:32;;;;;;;8.73;3.10;;;;;;;;;;5038718;28;20017;-69
2023/07/07 04:50:59;;;;;;;6.95;3.78;;;;;;;;;;5026695;28;20048;-69
2023/07/07 04:53:25;;;;;;;8.52;3.38;;;;;;;;;;5029758;28;20029;-70
2023/07/07 04:55:51;;;;;;;8.82;4.10;;;;;;;;;;5067570;28;20037;-69
2023/07/07 04:58:16;;;;;;;10.38;3.20;;;;;;;;;;5026034;28;20026;-69
2023/07/07 05:00:41;;;;;;;10.43;4.13;;;;;;;;;;5026463;28;20485;-69
2023/07/07 05:03:07;;;;;;;6.97;3.55;;;;;;;;;;5026263;28;20127;-70
2023/07/07 05:05:35;;;;;;;5.55;3.78;;;;;;;;;;5025729;28;20136;-70
2023/07/07 05:08:01;;;;;;;8.77;3.80;;;;;;;;;;5024693;28;20048;-69
2023/07/07 05:10:26;;;;;;;6.45;3.70;;;;;;;;;;5025718;28;20022;-69
2023/07/07 05:12:51;;;;;;;8.30;3.97;;;;;;;;;;5026143;28;20025;-69
2023/07/07 05:15:16;;;;;;;6.47;3.55;;;;;;;;;;5026448;28;20021;-69
2023/07/07 05:17:42;;;;;;;5.43;3.70;;;;;;;;;;5025526;28;20029;-69
2023/07/07 05:20:07;;;;;;;7.15;3.40;;;;;;;;;;5026103;28;20133;-69
2023/07/07 05:22:32;;;;;;;7.82;3.67;;;;;;;;;;5025484;28;20052;-69
2023/07/07 05:24:58;;;;;;;5.90;3.10;;;;;;;;;;5024333;28;20038;-70
2023/07/07 05:27:23;;;;;;;5.47;3.28;;;;;;;;;;5025185;28;20029;-70
2023/07/07 05:29:51;;;;;;;4.57;3.03;;;;;;;;;;5035063;28;20086;-69
2023/07/07 05:32:17;;;;;;;5.53;3.25;;;;;;;;;;5061600;28;20034;-69
2023/07/07 05:34:42;;;;;;;7.20;2.85;;;;;;;;;;5025840;28;20040;-69
2023/07/07 05:37:08;;;;;;;5.03;2.80;;;;;;;;;;5025397;28;20029;-70
2023/07/07 05:39:33;;;;;;;6.30;3.30;;;;;;;;;;5026156;28;20036;-69
2023/07/07 05:41:59;;;;;;;6.13;2.65;;;;;;;;;;5018921;28;20026;-69
2023/07/07 05:44:24;;;;;;;4.38;2.53;;;;;;;;;;5025630;28;20044;-69
2023/07/07 05:46:49;;;;;;;4.90;2.30;;;;;;;;;;5025843;28;20036;-69
2023/07/07 05:49:15;;;;;;;10.27;2.90;;;;;;;;;;5026345;28;20032;-69
2023/07/07 05:51:41;;;;;;;6.50;2.58;;;;;;;;;;5019515;28;20108;-69
2023/07/07 05:54:06;;;;;;;4.65;2.50;;;;;;;;;;5023976;28;20053;-70
2023/07/07 05:56:31;;;;;;;6.15;3.03;;;;;;;;;;5025446;28;20036;-69
2023/07/07 05:58:57;;;;;;;8.90;2.40;;;;;;;;;;5026100;28;20040;-69
2023/07/07 06:01:23;;;;;;;4.68;2.22;;;;;;;;;;5025183;28;20056;-70
2023/07/07 06:03:48;;;;;;;4.93;2.40;;;;;;;;;;5025986;28;20110;-70
2023/07/07 06:06:14;;;;;;;3.88;2.47;;;;;;;;;;5026633;28;20141;-70
2023/07/07 06:08:40;;;;;;;4.85;2.22;;;;;;;;;;5027977;28;20037;-70
2023/07/07 06:11:06;;;;;;;4.20;2.28;;;;;;;;;;5028500;28;20064;-70
2023/07/07 06:13:32;;;;;;;5.60;2.40;;;;;;;;;;5030438;28;20048;-70
2023/07/07 06:15:58;;;;;;;3.47;2.28;;;;;;;;;;5016297;28;20542;-70
2023/07/07 06:18:24;;;;;;;7.30;2.58;;;;;;;;;;5017973;28;20029;-70
2023/07/07 06:20:52;;;;;;;5.53;2.42;;;;;;;;;;5022908;28;20040;-70
2023/07/07 06:23:18;;;;;;;3.72;2.40;;;;;;;;;;5023169;28;20084;-70
2023/07/07 06:25:43;;;;;;;7.53;2.53;;;;;;;;;;5024624;28;20510;-70
2023/07/07 06:28:08;;;;;;;4.55;2.53;;;;;;;;;;5024074;28;20057;-70
2023/07/07 06:30:34;;;;;;;4.10;2.35;;;;;;;;;;5023543;28;20040;-70
2023/07/07 06:32:59;;;;;;;6.18;2.47;;;;;;;;;;5025371;28;20060;-70
2023/07/07 06:35:28;;;;;;;4.72;2.47;;;;;;;;;;5024304;28;20116;-70
2023/07/07 06:37:53;;;;;;;6.30;2.50;;;;;;;;;;5027916;28;20742;-70
2023/07/07 06:40:18;;;;;;;3.85;2.45;;;;;;;;;;5029675;28;20040;-70
2023/07/07 06:42:44;;;;;;;6.90;2.95;;;;;;;;;;5028144;28;20109;-70
2023/07/07 06:45:09;;;;;;;5.75;2.33;;;;;;;;;;5028503;28;20029;-70
2023/07/07 06:47:35;;;;;;;4.85;2.90;;;;;;;;;;5028523;28;20087;-70
2023/07/07 06:50:00;;;;;;;7.35;2.53;;;;;;;;;;5028447;28;20084;-70
2023/07/07 06:52:25;;;;;;;4.97;2.70;;;;;;;;;;5028405;28;20096;-70
2023/07/07 06:54:52;;;;;;;9.13;3.13;;;;;;;;;;5042690;28;20041;-70
2023/07/07 06:57:18;;;;;;;5.38;2.72;;;;;;;;;;5029582;28;20543;-70
2023/07/07 06:59:43;;;;;;;5.20;2.65;;;;;;;;;;5027905;28;20076;-70
2023/07/07 07:02:15;;;;;;;5.05;2.67;;;;;;;;;;5028630;28;20052;-70
2023/07/07 07:04:40;;;;;;;5.45;2.75;;;;;;;;;;5027690;28;20041;-70
2023/07/07 07:07:08;;;;;;;5.05;2.58;;;;;;;;;;5028871;28;20046;-70
2023/07/07 07:09:34;;;;;;;4.22;2.40;;;;;;;;;;5025402;28;20030;-70
2023/07/07 07:11:59;;;;;;;4.60;2.40;;;;;;;;;;5028219;28;20406;-70
2023/07/07 07:14:25;;;;;;;5.57;2.80;;;;;;;;;;5029710;28;20092;-70
2023/07/07 07:16:50;;;;;;;5.03;2.67;;;;;;;;;;5020299;28;20068;-70
2023/07/07 07:19:15;;;;;;;5.30;2.85;;;;;;;;;;5015669;28;20077;-70
2023/07/07 07:21:41;;;;;;;4.90;2.60;;;;;;;;;;5028398;28;20057;-70
2023/07/07 07:24:06;;;;;;;5.95;2.55;;;;;;;;;;5028360;28;20083;-70
2023/07/07 07:26:32;;;;;;;3.67;2.33;;;;;;;;;;5029346;28;20559;-70
2023/07/07 07:28:57;;;;;;;3.95;2.22;;;;;;;;;;5030956;28;20026;-70
2023/07/07 07:31:22;;;;;;;4.43;2.25;;;;;;;;;;5040210;28;20041;-70
2023/07/07 07:33:50;;;;;;;4.82;2.30;;;;;;;;;;5023359;28;20041;-70
2023/07/07 07:36:16;;;;;;;7.32;2.28;;;;;;;;;;5028118;28;20033;-70
2023/07/07 07:38:41;;;;;;;6.35;2.30;;;;;;;;;;5032285;28;20519;-70
2023/07/07 07:41:06;;;;;;;6.18;2.70;;;;;;;;;;5013948;28;20030;-70
2023/07/07 07:43:32;;;;;;;3.03;2.20;;;;;;;;;;5023769;28;20091;-70
2023/07/07 07:45:57;;;;;;;6.38;3.40;;;;;;;;;;5027708;28;20029;-70
2023/07/07 07:48:23;;;;;;;5.88;3.75;;;;;;;;;;5027612;28;20037;-70
2023/07/07 07:50:49;;;;;;;7.28;3.97;;;;;;;;;;5027843;28;20466;-70
2023/07/07 07:53:14;;;;;;;7.68;3.50;;;;;;;;;;5023112;28;20079;-70
2023/07/07 07:55:39;;;;;;;6.28;3.58;;;;;;;;;;5015257;28;20050;-71
2023/07/07 07:58:05;;;;;;;4.53;2.60;;;;;;;;;;5011771;28;20045;-71
2023/07/07 08:00:30;;;;;;;5.25;2.58;;;;;;;;;;5017821;28;20111;-71
2023/07/07 08:02:55;;;;;;;5.93;2.47;;;;;;;;;;5026544;28;20034;-70
2023/07/07 08:05:21;;;;;;;6.78;2.80;;;;;;;;;;5027960;28;20494;-70
2023/07/07 08:07:46;;;;;;;4.10;2.65;;;;;;;;;;5027448;28;20573;-70
2023/07/07 08:10:11;;;;;;;4.75;2.67;;;;;;;;;;5026806;28;20439;-70
2023/07/07 08:12:37;;;;;;;6.15;3.00;;;;;;;;;;5027569;28;20658;-70
2023/07/07 08:15:03;;;;;;;4.05;2.58;;;;;;;;;;5027756;28;20079;-70
2023/07/07 08:17:28;;;;;;;6.07;3.47;;;;;;;;;;5025666;28;20076;-70
2023/07/07 08:19:54;;;;;;;3.58;2.60;;;;;;;;;;5027108;28;20554;-70
2023/07/07 08:22:23;;;;;;;4.68;2.53;;;;;;;;;;5025811;28;20108;-70
2023/07/07 08:24:52;;;;;;;5.43;2.30;;;;;;;;;;5027157;28;20029;-70
2023/07/07 08:27:19;;;;;;;8.27;2.90;;;;;;;;;;5026297;28;20029;-70
2023/07/07 08:29:44;;;;;;;5.85;2.60;;;;;;;;;;5030018;28;20478;-70
2023/07/07 08:32:13;;;;;;;4.20;2.60;;;;;;;;;;5021413;28;20025;-70
2023/07/07 08:34:38;;;;;;;5.85;2.65;;;;;;;;;;5026834;28;20116;-70
2023/07/07 08:37:05;;;;;;;4.25;2.47;;;;;;;;;;5026753;28;20144;-70
2023/07/07 08:39:30;;;;;;;3.20;2.47;;;;;;;;;;5027461;28;20116;-71
2023/07/07 08:42:03;;;;;;;4.35;2.60;;;;;;;;;;5027112;28;20032;-70
2023/07/07 08:44:31;;;;;;;5.20;2.50;;;;;;;;;;5018595;28;20108;-70
2023/07/07 08:47:26;;;;;;;5.35;2.58;;;;;;;;;;5024507;28;20065;-70
2023/07/07 08:49:59;;;;;;;3.80;2.58;;;;;;;;;;5022306;28;20073;-70
2023/07/07 08:52:43;;;;;;;5.47;2.58;;;;;;;;;;5025137;28;20037;-70
2023/07/07 08:55:14;;;;;;;5.07;2.60;;;;;;;;;;5022681;28;21056;-70
2023/07/07 08:57:50;;;;;;;3.90;2.50;;;;;;;;;;5026816;28;20048;-70
2023/07/07 09:00:33;;;;;;;3.75;2.67;;;;;;;;;;5018726;28;20098;-73
2023/07/07 09:03:02;;;;;;;5.20;2.33;;;;;;;;;;5036767;28;20045;-71
2023/07/07 09:05:46;;;;;;;5.30;2.50;;;;;;;;;;5020015;28;20049;-70
2023/07/07 09:08:43;;;;;;;3.90;2.25;;;;;;;;;;5024824;28;20073;-70
2023/07/07 09:11:30;;;;;;;3.60;2.20;;;;;;;;;;5019055;28;20041;-71
2023/07/07 09:13:58;;;;;;;3.47;2.20;;;;;;;;;;5023571;28;20042;-70
2023/07/07 09:16:34;;;;;;;3.88;2.45;;;;;;;;;;5022310;28;20580;-70
2023/07/07 09:19:11;;;;;;;4.90;2.45;;;;;;;;;;5022233;28;20034;-70
2023/07/07 09:21:42;;;;;;;5.90;2.20;;;;;;;;;;5017301;28;20041;-71
2023/07/07 09:24:44;;;;;;;5.53;2.65;;;;;;;;;;5023519;28;20156;-70
2023/07/07 09:27:23;;;;;;;5.13;2.08;;;;;;;;;;5018572;28;20044;-70
2023/07/07 09:29:53;;;;;;;4.63;2.47;;;;;;;;;;5030930;28;20025;-70
2023/07/07 09:32:22;;;;;;;4.53;2.50;;;;;;;;;;5017724;28;20029;-70
2023/07/07 09:34:47;;;;;;;5.03;2.95;;;;;;;;;;5015073;28;20038;-70
2023/07/07 09:37:39;;;;;;;5.00;2.67;;;;;;;;;;5022761;28;20089;-70
2023/07/07 09:40:23;;;;;;;4.82;2.58;;;;;;;;;;5001460;28;20065;-70
2023/07/07 09:43:12;;;;;;;3.97;2.20;;;;;;;;;;5021114;28;20559;-71
2023/07/07 09:45:55;;;;;;;4.97;2.45;;;;;;;;;;5014342;28;20041;-70
2023/07/07 09:48:20;;;;;;;;;;;;;;;;;;5018340;28;20037;-70
2023/07/07 09:51:00;;;;;;;5.68;2.60;;;;;;;;;;5033288;28;19947;-70
2023/07/07 09:53:37;;;;;;;3.70;2.58;;;;;;;;;;5023997;28;20014;-70
2023/07/07 09:56:03;;;;;;;6.50;2.60;;;;;;;;;;5020368;28;20046;-71
2023/07/07 09:58:57;;;;;;;4.25;2.58;;;;;;;;;;5022456;28;20558;-71
2023/07/07 10:01:27;;;;;;;3.83;2.60;;;;;;;;;;5022499;28;20136;-71
2023/07/07 10:03:54;;;;;;;5.78;2.80;;;;;;;;;;5021155;28;20041;-70
2023/07/07 10:06:31;;;;;;;3.85;2.72;;;;;;;;;;5022871;28;20522;-71
2023/07/07 10:08:57;;;;;;;4.13;2.70;;;;;;;;;;5023086;28;20033;-70
2023/07/07 10:11:44;;;;;;;5.18;2.60;;;;;;;;;;5023203;28;20067;-71
2023/07/07 10:14:13;;;;;;;4.40;2.97;;;;;;;;;;5026152;28;20124;-70
2023/07/07 10:17:09;;;;;;;4.30;2.63;;;;;;;;;;5026976;28;20037;-70
2023/07/07 10:20:00;;;;;;;3.78;2.35;;;;;;;;;;5015456;28;20572;-70
2023/07/07 10:22:26;;;;;;;5.53;2.58;;;;;;;;;;5061249;28;20045;-70
2023/07/07 10:24:51;;;;;;;4.40;2.50;;;;;;;;;;5034757;28;20033;-70
2023/07/07 10:27:22;;;;;;;5.30;2.65;;;;;;;;;;5034714;28;20044;-70
2023/07/07 10:29:47;;;;;;;4.78;2.63;;;;;;;;;;5026015;28;20495;-71
2023/07/07 10:32:20;;;;;;;5.47;2.50;;;;;;;;;;5023278;28;20056;-70
2023/07/07 10:34:47;;;;;;;4.13;2.50;;;;;;;;;;5015918;28;20036;-70
2023/07/07 10:37:24;;;;;;;5.72;2.53;;;;;;;;;;5026077;28;20038;-70
2023/07/07 10:40:00;;;;;;;5.25;2.50;;;;;;;;;;5026600;28;20029;-70
2023/07/07 10:42:27;;;;;;;3.63;2.30;;;;;;;;;;5013458;28;20026;-70
2023/07/07 10:44:54;;;;;;;3.13;2.33;;;;;;;;;;5025734;28;20045;-70
2023/07/07 10:47:24;;;;;;;3.53;2.38;;;;;;;;;;5026963;28;20104;-70
2023/07/07 10:49:49;;;;;;;3.30;2.40;;;;;;;;;;5025135;28;20072;-70
2023/07/07 10:52:44;;;;;;;4.28;2.70;;;;;;;;;;5024314;28;20030;-70
2023/07/07 10:55:27;;;;;;;3.92;2.42;;;;;;;;;;5012108;28;20041;-70
2023/07/07 10:58:07;;;;;;;3.92;2.60;;;;;;;;;;5024595;28;20486;-70
2023/07/07 11:00:32;;;;;;;4.97;2.80;;;;;;;;;;5021087;28;20144;-70
2023/07/07 11:03:24;;;;;;;5.22;2.78;;;;;;;;;;5011802;28;20116;-70
2023/07/07 11:06:20;;;;;;;4.15;2.38;;;;;;;;;;5017634;28;20735;-70
2023/07/07 11:09:09;;;;;;;4.63;2.70;;;;;;;;;;5021242;28;20029;-70
2023/07/07 11:11:55;;;;;;;6.50;3.10;;;;;;;;;;5016233;28;20507;-70
2023/07/07 11:14:39;;;;;;;4.35;2.80;;;;;;;;;;5048328;28;20144;-70
2023/07/07 11:17:07;;;;;;;4.05;2.63;;;;;;;;;;5046008;28;20043;-69
2023/07/07 11:20:17;;;;;;;4.60;2.85;;;;;;;;;;5045107;28;20562;-70
2023/07/07 11:22:59;;;;;;;4.05;2.58;;;;;;;;;;4999313;28;20132;-70
2023/07/07 11:25:47;;;;;;;3.72;2.65;;;;;;;;;;5022484;28;20045;-70
2023/07/07 11:28:47;;;;;;;5.32;2.80;;;;;;;;;;5017558;28;20048;-70
2023/07/07 11:31:24;;;;;;;4.38;2.80;;;;;;;;;;5012603;28;20056;-70
2023/07/07 11:33:52;;;;;;;4.22;2.78;;;;;;;;;;5025829;28;20038;-70
2023/07/07 11:36:36;;;;;;;6.35;3.35;;;;;;;;;;5024161;28;20029;-70
2023/07/07 11:39:16;;;;;;;4.78;2.58;;;;;;;;;;5025560;28;20034;-70
2023/07/07 11:42:03;;;;;;;5.32;2.80;;;;;;;;;;5025503;28;20038;-70
2023/07/07 11:44:34;;;;;;;6.00;3.03;;;;;;;;;;5025090;28;20032;-70
2023/07/07 11:47:48;;;;;;;5.88;2.47;;;;;;;;;;5018820;28;20036;-70
2023/07/07 11:50:49;;;;;;;5.60;3.00;;;;;;;;;;5031313;28;20533;-70
2023/07/07 11:53:33;;;;;;;5.25;2.92;;;;;;;;;;5031150;28;20047;-70
2023/07/07 11:56:05;;;;;;;5.05;2.70;;;;;;;;;;5069601;28;20041;-70
2023/07/07 11:58:42;;;;;;;4.13;2.85;;;;;;;;;;5039226;28;20588;-70
2023/07/07 12:01:31;;;;;;;4.05;2.90;;;;;;;;;;5027798;28;20080;-70
2023/07/07 12:04:25;;;;;;;5.13;2.60;;;;;;;;;;5020580;28;20045;-70
2023/07/07 12:06:58;;;;;;;5.13;2.50;;;;;;;;;;5008883;28;20064;-70
2023/07/07 12:09:38;;;;;;;;;;;;;;;;;;5025231;28;20029;-70
2023/07/07 12:12:29;;;;;;;6.22;2.95;;;;;;;;;;5018494;28;19921;-70
2023/07/07 12:15:24;;;;;;;5.03;2.90;;;;;;;;;;5013837;28;20454;-70
2023/07/07 12:17:56;;;;;;;5.25;3.33;;;;;;;;;;5017367;28;20146;-70
2023/07/07 12:20:25;;;;;;;4.13;2.47;;;;;;;;;;5025241;28;20514;-70
2023/07/07 12:22:51;;;;;;;6.65;3.00;;;;;;;;;;5024952;28;20029;-70
2023/07/07 12:25:25;;;;;;;7.38;3.25;;;;;;;;;;5022790;28;20430;-70
2023/07/07 12:27:52;;;;;;;5.22;3.15;;;;;;;;;;5023922;28;20144;-70
2023/07/07 12:30:21;;;;;;;5.28;2.90;;;;;;;;;;5024291;28;20034;-70
2023/07/07 12:32:47;;;;;;;5.43;3.10;;;;;;;;;;5011830;28;20029;-70
2023/07/07 12:35:25;;;;;;;5.50;3.03;;;;;;;;;;5024527;28;20021;-71
2023/07/07 12:37:50;;;;;;;5.45;2.60;;;;;;;;;;5024106;28;20542;-71
2023/07/07 12:40:18;;;;;;;4.97;2.97;;;;;;;;;;5024108;28;20038;-71
2023/07/07 12:42:45;;;;;;;4.75;3.17;;;;;;;;;;5023135;28;20033;-71
2023/07/07 12:45:16;;;;;;;3.47;2.78;;;;;;;;;;5022559;28;20589;-68
2023/07/07 12:47:45;;;;;;;5.00;3.05;;;;;;;;;;5018688;28;20041;-69
2023/07/07 12:50:27;;;;;;;5.65;3.15;;;;;;;;;;5016791;28;20028;-68
2023/07/07 12:52:58;;;;;;;4.40;2.97;;;;;;;;;;5020123;28;20053;-68
2023/07/07 12:55:28;;;;;;;6.50;3.10;;;;;;;;;;5023156;28;20064;-68
2023/07/07 12:58:39;;;;;;;4.10;2.95;;;;;;;;;;5023037;28;20152;-68
2023/07/07 13:01:17;;;;;;;4.80;3.05;;;;;;;;;;5012592;28;20056;-68
2023/07/07 13:04:07;;;;;;;5.90;3.50;;;;;;;;;;5012855;28;20155;-67
2023/07/07 13:06:36;;;;;;;5.68;3.35;;;;;;;;;;5012201;28;20041;-68
2023/07/07 13:09:18;;;;;;;6.82;3.35;;;;;;;;;;5018196;28;20065;-68
2023/07/07 13:11:56;;;;;;;5.50;3.10;;;;;;;;;;5024385;28;20021;-67
2023/07/07 13:14:27;;;;;;;5.93;3.25;;;;;;;;;;5027847;28;20095;-67
2023/07/07 13:16:54;;;;;;;4.72;3.45;;;;;;;;;;5031056;28;20065;-68
2023/07/07 13:19:20;;;;;;;5.32;3.58;;;;;;;;;;5030401;28;20061;-68
2023/07/07 13:21:47;;;;;;;5.60;3.05;;;;;;;;;;5022147;28;20093;-68
2023/07/07 13:24:15;;;;;;;5.10;2.97;;;;;;;;;;5024291;28;20029;-68
2023/07/07 13:26:41;;;;;;;4.90;3.22;;;;;;;;;;5023710;28;20021;-68
2023/07/07 13:29:06;;;;;;;5.43;3.20;;;;;;;;;;5027123;28;20059;-68
2023/07/07 13:31:38;;;;;;;5.15;3.30;;;;;;;;;;5033703;28;20045;-68
2023/07/07 13:34:03;;;;;;;3.65;2.67;;;;;;;;;;5022625;28;20514;-68
2023/07/07 13:36:29;;;;;;;5.18;3.10;;;;;;;;;;5024116;28;20029;-68
2023/07/07 13:38:54;;;;;;;4.80;2.80;;;;;;;;;;5024443;28;20025;-68
2023/07/07 13:41:20;;;;;;;5.03;3.30;;;;;;;;;;5023665;28;20049;-68
2023/07/07 13:43:48;;;;;;;5.78;3.20;;;;;;;;;;5024060;28;20084;-68
2023/07/07 13:46:21;;;;;;;5.55;3.42;;;;;;;;;;5023382;28;20613;-68
2023/07/07 13:48:52;;;;;;;;;;;;;;;;;;5022908;28;20084;-68
2023/07/07 13:51:27;;;;;;;5.45;3.35;;;;;;;;;;5055229;28;19917;-68
2023/07/07 13:53:54;;;;;;;4.63;3.25;;;;;;;;;;5031566;28;20029;-68
2023/07/07 13:56:19;;;;;;;5.47;3.30;;;;;;;;;;5029954;28;20407;-68
2023/07/07 13:58:47;;;;;;;6.47;3.40;;;;;;;;;;5024177;28;20034;-68
2023/07/07 14:01:37;;;;;;;5.22;3.40;;;;;;;;;;5014229;28;20041;-68
2023/07/07 14:04:10;;;;;;;4.85;3.10;;;;;;;;;;5023760;28;20613;-68
2023/07/07 14:06:37;;;;;;;8.38;4.05;;;;;;;;;;5023623;28;20056;-68
2023/07/07 14:09:02;;;;;;;5.38;3.35;;;;;;;;;;5023469;28;20572;-68
2023/07/07 14:11:28;;;;;;;6.07;3.70;;;;;;;;;;5024281;28;20021;-68
2023/07/07 14:14:00;;;;;;;6.82;3.70;;;;;;;;;;5023699;28;20038;-68
2023/07/07 14:16:40;;;;;;;7.47;3.47;;;;;;;;;;5020210;28;20029;-68
2023/07/07 14:19:10;;;;;;;6.85;3.50;;;;;;;;;;5022571;28;20049;-68
2023/07/07 14:21:36;;;;;;;5.93;3.33;;;;;;;;;;5022120;28;20460;-68
2023/07/07 14:24:02;;;;;;;6.05;3.38;;;;;;;;;;5024310;28;20557;-68
2023/07/07 14:26:28;;;;;;;6.68;3.70;;;;;;;;;;5018583;28;20415;-68
2023/07/07 14:28:57;;;;;;;5.70;3.35;;;;;;;;;;5024088;28;20091;-68
2023/07/07 14:31:24;;;;;;;5.25;3.58;;;;;;;;;;5023407;28;20534;-68
2023/07/07 14:33:59;;;;;;;4.43;3.15;;;;;;;;;;5023484;28;20590;-68
2023/07/07 14:36:27;;;;;;;5.30;3.38;;;;;;;;;;5022671;28;20032;-68
2023/07/07 14:39:04;;;;;;;8.13;4.53;;;;;;;;;;5024020;28;20055;-68
2023/07/07 14:41:35;;;;;;;5.72;3.63;;;;;;;;;;5031009;28;20029;-68
2023/07/07 14:44:01;;;;;;;5.35;3.92;;;;;;;;;;5050934;28;20117;-68
2023/07/07 14:46:31;;;;;;;5.18;3.30;;;;;;;;;;5028100;28;20037;-68
2023/07/07 14:49:05;;;;;;;5.05;3.33;;;;;;;;;;5025292;28;20042;-68
2023/07/07 14:51:42;;;;;;;4.70;3.38;;;;;;;;;;5023839;28;20411;-68
2023/07/07 14:54:14;;;;;;;4.63;3.22;;;;;;;;;;5023616;28;20109;-68
2023/07/07 14:56:48;;;;;;;4.05;2.92;;;;;;;;;;5023568;28;20116;-68
2023/07/07 14:59:21;;;;;;;5.57;3.40;;;;;;;;;;5026210;28;20035;-68
2023/07/07 15:01:58;;;;;;;4.78;3.38;;;;;;;;;;5026851;28;20049;-68
2023/07/07 15:04:30;;;;;;;8.68;3.70;;;;;;;;;;5025314;28;20048;-68